Terminal Aerodrome Forecast
Issued by NWS

Home | Current Version | Previous Version | Text Only | Print | Product List | Glossary On
Versions: 1 2 3 4 5 6 7 8 9 10 11 12 13 14 15 16 17 18 19 20 21 22 23 24 25 26 27
000
FTUS43 KDLH 170500
TAFBRD
TAF
KBRD 170528Z 1706/1806 30008KT P6SM SCT014 BKN022 OVC030
      TEMPO 1706/1708 BKN015
     FM170800 30012G20KT P6SM VCSH BKN020
     FM171500 35014G24KT P6SM SCT015 BKN030
     FM180000 35012KT P6SM BKN040=

USA.gov is the U.S. government's official web portal to all federal, state and local government web resources and services.